Time;durP1;ratioP1;P1;durP2;ratioP2;P2;SDS_P1;SDS_P2;PMS_P1;PMS_P2;Temp;Humidity;BMP_temperature;BMP_pressure;BME280_temperature;BME280_humidity;BME280_pressure;Samples;Min_cycle;Max_cycle;Signal;HPM_P1;HPM_P2
2022/09/02 00:01:27;;;;;;;0.43;0.28;;;12.40;99.90;;;;;;5084282;28;20071;-66
2022/09/02 00:04:00;;;;;;;0.20;0.20;;;12.40;99.90;;;;;;5078559;28;20052;-67
2022/09/02 00:06:30;;;;;;;1.65;0.40;;;12.40;99.90;;;;;;5083039;28;20918;-66
2022/09/02 00:08:57;;;;;;;3.65;1.20;;;12.40;99.90;;;;;;5091745;28;20738;-66
2022/09/02 00:11:28;;;;;;;0.30;0.20;;;12.40;99.90;;;;;;5080160;28;20183;-68
2022/09/02 00:13:56;;;;;;;0.35;0.35;;;12.40;99.90;;;;;;5075401;28;20105;-67
2022/09/02 00:16:24;;;;;;;0.90;0.30;;;12.40;99.90;;;;;;5094835;28;20044;-66
2022/09/02 00:18:52;;;;;;;0.25;0.25;;;12.40;99.90;;;;;;5084218;28;20071;-69
2022/09/02 00:21:20;;;;;;;0.52;0.20;;;12.40;99.90;;;;;;5063959;28;20536;-66
2022/09/02 00:23:48;;;;;;;1.02;0.30;;;12.50;99.90;;;;;;5065393;28;20079;-67
2022/09/02 00:26:15;;;;;;;0.88;0.40;;;12.50;99.90;;;;;;5067142;28;20098;-69
2022/09/02 00:28:42;;;;;;;1.40;0.60;;;12.50;99.90;;;;;;5065310;28;20637;-68
2022/09/02 00:31:15;;;;;;;1.17;0.20;;;12.50;99.90;;;;;;5071736;28;20051;-68
2022/09/02 00:33:43;;;;;;;2.35;0.50;;;12.50;99.90;;;;;;5066713;28;20052;-67
2022/09/02 00:36:10;;;;;;;0.63;0.20;;;12.50;99.90;;;;;;5067616;28;20045;-66
2022/09/02 00:38:38;;;;;;;0.30;0.20;;;12.50;99.90;;;;;;5065637;28;20068;-68
2022/09/02 00:41:09;;;;;;;1.08;0.70;;;12.50;99.90;;;;;;5066927;28;20449;-66
2022/09/02 00:43:40;;;;;;;0.60;0.32;;;12.50;99.90;;;;;;5059184;28;20060;-70
2022/09/02 00:46:07;;;;;;;0.10;0.08;;;12.50;99.90;;;;;;5064948;28;20082;-69
2022/09/02 00:48:39;;;;;;;0.20;0.15;;;12.50;99.90;;;;;;5065827;28;20047;-69
2022/09/02 00:51:07;;;;;;;0.00;0.00;;;12.60;99.90;;;;;;5067133;28;20048;-68
2022/09/02 00:53:38;;;;;;;1.42;0.25;;;12.50;99.90;;;;;;5056226;28;20060;-67
2022/09/02 00:56:11;;;;;;;0.85;0.20;;;12.60;99.90;;;;;;5066968;28;20133;-69
2022/09/02 00:58:41;;;;;;;0.20;0.17;;;12.50;99.90;;;;;;5064950;28;20478;-68
2022/09/02 01:01:10;;;;;;;3.10;0.20;;;12.50;99.90;;;;;;5060649;28;20106;-67
2022/09/02 01:03:40;;;;;;;1.85;0.30;;;12.60;99.90;;;;;;5064189;28;20331;-67
2022/09/02 01:06:14;;;;;;;0.57;0.28;;;12.50;99.90;;;;;;5067352;28;20063;-68
2022/09/02 01:08:53;;;;;;;0.80;0.20;;;12.50;99.90;;;;;;5064623;28;20122;-68
2022/09/02 01:11:20;;;;;;;0.47;0.10;;;12.50;99.90;;;;;;5057359;28;20048;-70
2022/09/02 01:13:47;;;;;;;0.68;0.47;;;12.50;99.90;;;;;;5066474;28;20114;-68
2022/09/02 01:16:14;;;;;;;0.10;0.10;;;12.50;99.90;;;;;;5059988;28;20107;-66
2022/09/02 01:18:46;;;;;;;0.55;0.20;;;12.60;99.90;;;;;;5068886;28;20044;-69
2022/09/02 01:21:13;;;;;;;0.68;0.15;;;12.60;99.90;;;;;;5066745;28;20045;-67
2022/09/02 01:23:40;;;;;;;0.40;0.20;;;12.60;99.90;;;;;;5078640;28;20052;-68
2022/09/02 01:26:09;;;;;;;0.30;0.30;;;12.60;99.90;;;;;;5066176;28;20044;-66
2022/09/02 01:28:36;;;;;;;1.40;0.25;;;12.60;99.90;;;;;;5062975;28;20114;-69
2022/09/02 01:31:03;;;;;;;0.20;0.10;;;12.50;99.90;;;;;;5066768;28;20040;-66
2022/09/02 01:33:30;;;;;;;0.65;0.35;;;12.50;99.90;;;;;;5054834;28;20052;-67
2022/09/02 01:35:58;;;;;;;0.90;0.20;;;12.50;99.90;;;;;;5055706;28;20106;-67
2022/09/02 01:38:26;;;;;;;0.70;0.20;;;12.60;99.90;;;;;;5061965;28;20045;-68
2022/09/02 01:40:53;;;;;;;2.65;0.63;;;12.50;99.90;;;;;;5057967;28;20057;-66
2022/09/02 01:43:26;;;;;;;1.25;0.47;;;12.50;99.90;;;;;;5065688;28;20061;-67
2022/09/02 01:45:55;;;;;;;1.85;0.40;;;12.50;99.90;;;;;;5064503;28;20044;-72
2022/09/02 01:48:25;;;;;;;0.20;0.20;;;12.50;99.90;;;;;;5070742;28;20163;-67
2022/09/02 01:50:59;;;;;;;0.10;0.10;;;12.50;99.90;;;;;;5078789;28;20052;-67
2022/09/02 01:53:28;;;;;;;0.38;0.22;;;12.50;99.90;;;;;;5065036;28;20061;-68
2022/09/02 01:55:56;;;;;;;0.47;0.20;;;12.50;99.90;;;;;;5063351;28;21158;-67
2022/09/02 01:58:23;;;;;;;0.60;0.30;;;12.60;99.90;;;;;;5062020;28;20048;-68
2022/09/02 02:00:50;;;;;;;0.35;0.30;;;12.50;99.90;;;;;;5061136;28;20064;-67
2022/09/02 02:03:19;;;;;;;0.85;0.40;;;12.50;99.90;;;;;;5062723;28;20040;-66
2022/09/02 02:05:47;;;;;;;0.88;0.28;;;12.50;99.90;;;;;;5063893;28;20041;-66
2022/09/02 02:08:16;;;;;;;0.28;0.20;;;12.50;99.90;;;;;;5058667;28;20040;-67
2022/09/02 02:10:45;;;;;;;0.40;0.20;;;12.50;99.90;;;;;;5065506;28;20045;-67
2022/09/02 02:13:13;;;;;;;1.00;0.32;;;12.50;99.90;;;;;;5063709;28;20065;-66
2022/09/02 02:15:43;;;;;;;0.60;0.50;;;12.50;99.90;;;;;;5077970;28;20051;-67
2022/09/02 02:18:10;;;;;;;0.98;0.20;;;12.50;99.90;;;;;;5034622;28;20230;-67
2022/09/02 02:20:37;;;;;;;4.40;0.40;;;12.50;99.90;;;;;;5060692;28;20072;-67
2022/09/02 02:23:05;;;;;;;1.73;0.60;;;12.40;99.90;;;;;;5062845;28;20056;-66
2022/09/02 02:25:32;;;;;;;0.68;0.40;;;12.40;99.90;;;;;;5065523;28;20169;-66
2022/09/02 02:27:59;;;;;;;1.00;0.43;;;12.40;99.90;;;;;;5065018;28;20053;-66
2022/09/02 02:30:29;;;;;;;0.82;0.30;;;12.40;99.90;;;;;;5063545;28;20213;-66
2022/09/02 02:32:56;;;;;;;1.60;0.50;;;12.30;99.90;;;;;;5061520;28;20064;-66
2022/09/02 02:35:24;;;;;;;2.20;0.55;;;12.40;99.90;;;;;;5057675;28;20494;-71
2022/09/02 02:37:52;;;;;;;3.03;0.52;;;12.30;99.90;;;;;;5059707;28;20040;-66
2022/09/02 02:40:22;;;;;;;0.95;0.32;;;12.30;99.90;;;;;;5064800;28;20125;-67
2022/09/02 02:42:53;;;;;;;4.38;0.95;;;12.40;99.90;;;;;;5061002;28;20044;-69
2022/09/02 02:45:23;;;;;;;1.58;0.55;;;12.40;99.90;;;;;;5063378;28;20151;-67
2022/09/02 02:47:51;;;;;;;0.85;0.35;;;12.30;99.90;;;;;;5064823;28;20056;-69
2022/09/02 02:50:21;;;;;;;1.13;0.32;;;12.40;99.90;;;;;;5061149;28;20390;-67
2022/09/02 02:52:49;;;;;;;1.60;0.32;;;12.30;99.90;;;;;;5057932;28;20411;-69
2022/09/02 02:55:18;;;;;;;1.17;0.40;;;12.30;99.90;;;;;;5066839;28;20454;-68
2022/09/02 02:57:45;;;;;;;1.05;0.30;;;12.30;99.90;;;;;;5063923;28;20048;-66
2022/09/02 03:00:23;;;;;;;1.13;0.20;;;12.30;99.90;;;;;;5063177;28;20109;-67
2022/09/02 03:02:58;;;;;;;1.67;0.30;;;12.30;99.90;;;;;;5061104;28;20447;-67
2022/09/02 03:05:26;;;;;;;2.45;0.43;;;12.30;99.90;;;;;;5065354;28;20430;-69
2022/09/02 03:07:53;;;;;;;0.80;0.40;;;12.30;99.90;;;;;;5061517;28;20049;-67
2022/09/02 03:10:22;;;;;;;0.20;0.20;;;12.30;99.90;;;;;;5059807;28;20044;-67
2022/09/02 03:12:49;;;;;;;0.95;0.82;;;12.30;99.90;;;;;;5063680;28;20458;-66
2022/09/02 03:15:19;;;;;;;0.82;0.13;;;12.30;99.90;;;;;;5066310;28;20401;-68
2022/09/02 03:17:50;;;;;;;1.27;0.73;;;12.30;99.90;;;;;;5065411;28;20089;-69
2022/09/02 03:20:17;;;;;;;1.08;0.43;;;12.30;99.90;;;;;;5074387;28;20671;-67
2022/09/02 03:22:54;;;;;;;1.15;0.22;;;12.40;99.90;;;;;;5052345;28;20040;-67
2022/09/02 03:25:22;;;;;;;3.17;0.60;;;12.30;99.90;;;;;;5062346;28;20398;-69
2022/09/02 03:27:53;;;;;;;1.15;0.45;;;12.30;99.90;;;;;;5065167;28;20044;-67
2022/09/02 03:30:24;;;;;;;1.42;0.45;;;12.30;99.90;;;;;;5065480;28;20055;-66
2022/09/02 03:32:53;;;;;;;0.85;0.50;;;12.30;99.90;;;;;;5069928;28;20052;-68
2022/09/02 03:35:21;;;;;;;1.70;0.68;;;12.40;99.90;;;;;;5084506;28;20048;-69
2022/09/02 03:37:50;;;;;;;0.65;0.35;;;12.40;99.90;;;;;;5064151;28;20051;-67
2022/09/02 03:40:22;;;;;;;1.65;0.38;;;12.30;99.90;;;;;;5048375;28;20197;-67
2022/09/02 03:42:52;;;;;;;1.02;0.52;;;12.40;99.90;;;;;;5042788;28;20091;-66
2022/09/02 03:45:25;;;;;;;1.13;0.60;;;12.40;99.90;;;;;;5045049;28;20120;-67
2022/09/02 03:47:53;;;;;;;0.43;0.40;;;12.40;99.90;;;;;;5063072;28;20101;-67
2022/09/02 03:50:28;;;;;;;1.13;0.30;;;12.40;99.90;;;;;;5076337;28;20718;-66
2022/09/02 03:52:57;;;;;;;0.70;0.40;;;12.40;99.90;;;;;;5058977;28;20048;-69
2022/09/02 03:55:25;;;;;;;1.15;0.40;;;12.40;99.90;;;;;;5059258;28;20045;-67
2022/09/02 03:57:53;;;;;;;0.30;0.25;;;12.30;99.90;;;;;;5072163;28;20054;-69
2022/09/02 04:00:24;;;;;;;0.85;0.22;;;12.30;99.90;;;;;;5066087;28;20053;-66
2022/09/02 04:02:54;;;;;;;0.98;0.40;;;12.20;99.90;;;;;;5104015;28;20051;-67
2022/09/02 04:05:23;;;;;;;0.73;0.50;;;12.20;99.90;;;;;;5063103;28;20132;-67
2022/09/02 04:07:52;;;;;;;2.55;0.90;;;12.20;99.90;;;;;;5048877;28;20166;-67
2022/09/02 04:10:20;;;;;;;0.75;0.52;;;12.20;99.90;;;;;;5057758;28;20045;-67
2022/09/02 04:12:50;;;;;;;0.70;0.40;;;12.10;99.90;;;;;;5044333;28;20410;-67
2022/09/02 04:15:18;;;;;;;2.13;0.50;;;12.10;99.90;;;;;;5062572;28;20404;-71
2022/09/02 04:17:46;;;;;;;0.50;0.30;;;12.10;99.90;;;;;;5066299;28;20044;-67
2022/09/02 04:20:16;;;;;;;5.13;0.80;;;12.00;99.90;;;;;;5065959;28;20048;-69
2022/09/02 04:22:44;;;;;;;1.05;0.40;;;12.10;99.90;;;;;;5063216;28;20127;-68
2022/09/02 04:25:12;;;;;;;2.22;0.50;;;12.20;99.90;;;;;;5066167;28;20152;-68
2022/09/02 04:27:39;;;;;;;0.38;0.30;;;12.20;99.90;;;;;;5059550;28;20048;-70
2022/09/02 04:30:08;;;;;;;0.40;0.40;;;12.30;99.90;;;;;;5065333;28;20160;-67
2022/09/02 04:32:37;;;;;;;0.38;0.20;;;12.40;99.90;;;;;;5063778;28;20049;-68
2022/09/02 04:35:08;;;;;;;0.60;0.20;;;12.40;99.90;;;;;;5070541;28;20405;-70
2022/09/02 04:37:36;;;;;;;0.32;0.25;;;12.40;99.90;;;;;;5064527;28;20049;-68
2022/09/02 04:40:03;;;;;;;0.90;0.63;;;12.40;99.90;;;;;;5065553;28;20516;-69
2022/09/02 04:42:31;;;;;;;1.88;0.50;;;12.40;99.90;;;;;;5065418;28;20147;-68
2022/09/02 04:44:58;;;;;;;0.50;0.10;;;12.40;99.90;;;;;;5059878;28;20048;-67
2022/09/02 04:47:26;;;;;;;4.43;0.60;;;12.50;99.90;;;;;;5065088;28;20049;-67
2022/09/02 04:49:54;;;;;;;0.43;0.20;;;12.40;99.90;;;;;;5062168;28;20045;-66
2022/09/02 04:52:22;;;;;;;0.85;0.20;;;12.40;99.90;;;;;;5054907;28;20102;-67
2022/09/02 04:54:49;;;;;;;0.47;0.30;;;12.50;99.90;;;;;;5063130;28;20044;-67
2022/09/02 04:57:16;;;;;;;1.00;0.30;;;12.50;99.90;;;;;;5064255;28;20372;-67
2022/09/02 04:59:44;;;;;;;3.30;0.68;;;12.50;99.90;;;;;;5061066;28;20474;-66
2022/09/02 05:02:11;;;;;;;1.60;0.47;;;12.50;99.90;;;;;;5065237;28;20051;-67
2022/09/02 05:04:39;;;;;;;0.85;0.40;;;12.50;99.90;;;;;;5071043;28;20040;-70
2022/09/02 05:07:14;;;;;;;3.08;0.38;;;12.40;99.90;;;;;;5060886;28;20120;-66
2022/09/02 05:09:44;;;;;;;;;;;12.40;99.90;;;;;;5066551;28;20048;-67
2022/09/02 05:12:12;;;;;;;0.73;0.10;;;12.30;99.90;;;;;;5066074;28;19951;-66
2022/09/02 05:14:47;;;;;;;0.57;0.57;;;12.30;99.90;;;;;;5062016;28;20043;-67
2022/09/02 05:17:16;;;;;;;0.75;0.17;;;12.20;99.90;;;;;;5077843;28;20594;-68
2022/09/02 05:19:44;;;;;;;1.40;0.28;;;12.20;99.90;;;;;;5078871;28;20044;-66
2022/09/02 05:22:14;;;;;;;0.20;0.10;;;12.10;99.90;;;;;;5062031;28;20154;-67
2022/09/02 05:24:42;;;;;;;0.57;0.40;;;12.10;99.90;;;;;;5057148;27;20366;-68
2022/09/02 05:27:14;;;;;;;0.38;0.20;;;12.10;99.90;;;;;;5063459;28;20056;-66
2022/09/02 05:29:43;;;;;;;0.30;0.22;;;12.20;99.90;;;;;;5065352;28;20044;-67
2022/09/02 05:32:13;;;;;;;0.70;0.32;;;12.30;99.90;;;;;;5061486;28;20450;-68
2022/09/02 05:34:41;;;;;;;1.10;0.35;;;12.40;99.90;;;;;;5065283;28;20044;-69
2022/09/02 05:37:09;;;;;;;7.57;1.08;;;12.60;99.90;;;;;;5066189;28;20044;-67
2022/09/02 05:39:37;;;;;;;1.75;0.30;;;12.70;99.90;;;;;;5059612;28;20100;-70
2022/09/02 05:42:06;;;;;;;0.68;0.32;;;12.80;99.90;;;;;;5062623;28;20044;-70
2022/09/02 05:44:35;;;;;;;3.53;0.40;;;12.90;99.90;;;;;;5077604;28;20041;-67
2022/09/02 05:47:04;;;;;;;0.73;0.30;;;13.00;99.90;;;;;;5060228;28;20135;-68
2022/09/02 05:49:31;;;;;;;0.45;0.35;;;13.00;99.90;;;;;;5065017;28;20459;-67
2022/09/02 05:52:04;;;;;;;2.45;0.60;;;13.00;99.90;;;;;;5062629;28;20055;-69
2022/09/02 05:54:39;;;;;;;2.10;0.20;;;13.10;99.90;;;;;;5060233;28;20339;-71
2022/09/02 05:57:12;;;;;;;0.80;0.65;;;13.10;99.90;;;;;;5066178;28;20433;-69
2022/09/02 05:59:59;;;;;;;;;;;13.00;99.90;;;;;;5084908;28;20241;-67
2022/09/02 06:02:42;;;;;;;2.25;0.50;;;13.00;99.90;;;;;;5080004;28;19920;-70
2022/09/02 06:05:56;;;;;;;4.22;0.63;;;13.00;99.90;;;;;;5073919;28;20044;-72
2022/09/02 06:08:24;;;;;;;1.35;0.55;;;13.00;99.90;;;;;;5064505;28;20054;-69
2022/09/02 06:10:52;;;;;;;0.43;0.20;;;13.00;99.90;;;;;;5081569;28;20044;-69
2022/09/02 06:13:21;;;;;;;0.60;0.40;;;13.00;99.90;;;;;;5064895;28;20044;-68
2022/09/02 06:15:51;;;;;;;1.85;0.85;;;13.00;99.90;;;;;;5069087;28;20311;-67
2022/09/02 06:18:23;;;;;;;2.58;0.70;;;13.10;99.90;;;;;;5065982;28;20036;-69
2022/09/02 06:20:53;;;;;;;0.55;0.40;;;13.10;99.90;;;;;;5059732;28;20062;-67
2022/09/02 06:23:20;;;;;;;0.43;0.35;;;13.10;99.90;;;;;;5046414;28;20052;-73
2022/09/02 06:25:49;;;;;;;1.08;0.52;;;13.10;99.90;;;;;;5074607;28;20064;-67
2022/09/02 06:28:17;;;;;;;0.57;0.40;;;13.10;99.90;;;;;;5080634;28;20048;-68
2022/09/02 06:30:47;;;;;;;3.28;1.13;;;13.10;99.90;;;;;;5063631;28;20044;-68
2022/09/02 06:33:16;;;;;;;;;;;13.10;99.90;;;;;;5065924;28;20048;-67
2022/09/02 06:35:45;;;;;;;1.15;0.50;;;13.10;99.90;;;;;;5065940;28;19930;-67
2022/09/02 06:38:15;;;;;;;1.30;0.35;;;13.10;99.90;;;;;;5065507;28;20045;-68
2022/09/02 06:40:51;;;;;;;0.98;0.25;;;13.10;99.90;;;;;;5061078;28;20040;-70
2022/09/02 06:43:24;;;;;;;0.47;0.47;;;13.20;99.90;;;;;;5085036;28;20468;-66
2022/09/02 06:46:05;;;;;;;0.77;0.45;;;13.10;99.90;;;;;;5066516;28;20083;-66
2022/09/02 06:48:34;;;;;;;0.52;0.20;;;13.10;99.90;;;;;;5049348;28;20051;-66
2022/09/02 06:51:01;;;;;;;6.85;1.08;;;13.10;99.90;;;;;;5083699;28;20046;-68
2022/09/02 06:53:29;;;;;;;1.05;0.30;;;13.10;99.90;;;;;;5070433;28;20135;-67
2022/09/02 06:55:57;;;;;;;0.52;0.47;;;13.20;99.90;;;;;;5067790;28;20063;-69
2022/09/02 06:58:24;;;;;;;0.30;0.20;;;13.20;99.90;;;;;;5083935;28;20044;-69
2022/09/02 07:00:52;;;;;;;1.63;0.45;;;13.20;99.90;;;;;;5063665;28;20093;-68
2022/09/02 07:06:08;;;;;;;1.45;0.70;;;13.30;99.90;;;;;;5083534;28;20043;-71
2022/09/02 07:08:42;;;;;;;0.65;0.35;;;13.20;99.90;;;;;;5071630;28;20044;-68
2022/09/02 07:11:21;;;;;;;0.60;0.30;;;13.20;99.90;;;;;;5065271;28;20058;-66
2022/09/02 07:13:50;;;;;;;0.57;0.50;;;13.20;99.90;;;;;;5067420;28;20084;-68
2022/09/02 07:16:20;;;;;;;0.32;0.25;;;13.20;99.90;;;;;;5064768;28;20412;-65
2022/09/02 07:18:55;;;;;;;0.40;0.32;;;13.30;99.90;;;;;;5060864;28;20056;-70
2022/09/02 07:21:23;;;;;;;1.63;0.45;;;13.50;99.90;;;;;;5066124;28;20040;-71
2022/09/02 07:23:50;;;;;;;13.32;1.08;;;13.60;99.90;;;;;;5057546;28;20040;-72
2022/09/02 07:26:18;;;;;;;2.65;0.57;;;13.60;99.90;;;;;;5057345;28;20094;-68
2022/09/02 07:28:46;;;;;;;2.03;1.00;;;13.70;99.90;;;;;;5062940;28;20062;-75
2022/09/02 07:31:15;;;;;;;0.10;0.10;;;13.80;99.90;;;;;;5090584;27;20050;-65
2022/09/02 07:33:43;;;;;;;1.50;0.40;;;13.80;99.90;;;;;;5086087;28;20070;-67
2022/09/02 07:36:15;;;;;;;0.30;0.30;;;13.90;99.90;;;;;;5068014;28;20535;-67
2022/09/02 07:38:43;;;;;;;0.65;0.32;;;14.10;99.90;;;;;;5066945;28;20143;-66
2022/09/02 07:41:11;;;;;;;0.55;0.20;;;14.10;99.90;;;;;;5068710;28;20755;-65
2022/09/02 07:43:40;;;;;;;1.13;0.55;;;14.10;99.90;;;;;;5085187;28;20059;-70
2022/09/02 07:46:08;;;;;;;0.55;0.30;;;14.20;99.90;;;;;;5067931;28;20420;-65
2022/09/02 07:48:35;;;;;;;0.50;0.40;;;14.20;99.90;;;;;;5067762;28;20059;-69
2022/09/02 07:51:04;;;;;;;1.00;0.30;;;14.30;99.90;;;;;;5084721;28;20050;-67
2022/09/02 07:53:31;;;;;;;0.90;0.68;;;14.40;99.90;;;;;;5079619;28;20415;-69
2022/09/02 07:55:59;;;;;;;1.50;0.22;;;14.50;99.90;;;;;;5067084;28;20367;-67
2022/09/02 07:58:27;;;;;;;1.15;0.30;;;14.50;99.90;;;;;;5068174;28;20094;-66
2022/09/02 08:00:59;;;;;;;2.58;0.40;;;14.50;99.90;;;;;;5063645;28;20119;-68
2022/09/02 08:03:27;;;;;;;0.38;0.25;;;14.40;99.90;;;;;;5085713;28;20134;-69
2022/09/02 08:05:56;;;;;;;3.25;0.20;;;14.50;99.90;;;;;;5066161;28;20055;-66
2022/09/02 08:08:26;;;;;;;1.17;0.30;;;14.40;99.90;;;;;;5085613;28;20052;-67
2022/09/02 08:10:53;;;;;;;3.22;0.95;;;14.40;99.90;;;;;;5079452;28;20469;-66
2022/09/02 08:13:22;;;;;;;0.88;0.30;;;14.40;99.90;;;;;;5081399;28;20155;-66
2022/09/02 08:15:53;;;;;;;1.95;0.20;;;14.40;99.90;;;;;;5087287;28;20048;-67
2022/09/02 08:18:21;;;;;;;0.50;0.20;;;14.40;99.90;;;;;;5087186;28;20089;-67
2022/09/02 08:20:49;;;;;;;0.20;0.10;;;14.50;99.90;;;;;;5083814;28;20040;-68
2022/09/02 08:23:16;;;;;;;0.40;0.20;;;14.60;99.90;;;;;;5077637;28;20716;-68
2022/09/02 08:26:03;;;;;;;0.35;0.10;;;14.60;99.90;;;;;;5082312;28;20143;-68
2022/09/02 08:28:30;;;;;;;3.05;0.60;;;14.40;99.90;;;;;;5086529;28;20691;-69
2022/09/02 08:30:58;;;;;;;2.63;1.35;;;14.50;99.90;;;;;;5087950;27;20185;-70
2022/09/02 08:33:25;;;;;;;0.45;0.22;;;14.50;99.90;;;;;;5087103;28;20113;-67
2022/09/02 08:35:52;;;;;;;0.47;0.20;;;14.40;99.90;;;;;;5085945;28;20131;-67
2022/09/02 08:38:21;;;;;;;0.22;0.20;;;14.40;99.90;;;;;;5081403;28;20044;-68
2022/09/02 08:40:49;;;;;;;0.73;0.38;;;14.40;99.90;;;;;;5083939;28;20085;-66
2022/09/02 08:43:28;;;;;;;1.27;0.30;;;14.40;99.90;;;;;;5083056;28;20402;-67
2022/09/02 08:46:01;;;;;;;2.17;0.50;;;14.40;99.90;;;;;;5084240;28;20159;-69
2022/09/02 08:48:35;;;;;;;0.25;0.10;;;14.40;99.90;;;;;;5079672;28;20040;-68
2022/09/02 08:51:28;;;;;;;0.10;0.10;;;14.40;99.90;;;;;;5084073;27;20043;-66
2022/09/02 08:54:14;;;;;;;0.45;0.20;;;14.40;99.90;;;;;;5083209;28;20139;-66
2022/09/02 08:56:41;;;;;;;0.68;0.20;;;14.30;99.90;;;;;;5084981;28;20654;-67
2022/09/02 08:59:09;;;;;;;1.38;0.22;;;14.30;99.90;;;;;;5084480;28;20036;-69
2022/09/02 09:01:51;;;;;;;1.95;0.25;;;14.30;99.90;;;;;;5083061;27;20527;-75
2022/09/02 09:04:43;;;;;;;0.30;0.20;;;14.20;99.90;;;;;;5085849;28;20138;-73
2022/09/02 09:07:36;;;;;;;1.42;0.30;;;14.20;99.90;;;;;;5082716;28;20040;-66
2022/09/02 09:10:03;;;;;;;0.50;0.20;;;14.20;99.90;;;;;;5077764;28;20116;-67
2022/09/02 09:12:38;;;;;;;4.53;1.00;;;14.20;99.90;;;;;;5086132;28;20135;-67
2022/09/02 09:15:15;;;;;;;1.00;0.25;;;14.30;99.90;;;;;;5079047;28;20371;-66
2022/09/02 09:17:51;;;;;;;0.30;0.15;;;14.40;99.90;;;;;;5086848;28;20101;-67
2022/09/02 09:20:25;;;;;;;1.02;0.25;;;14.40;99.90;;;;;;5079293;28;20048;-69
2022/09/02 09:22:56;;;;;;;1.38;0.50;;;14.50;99.90;;;;;;5082579;28;20132;-69
2022/09/02 09:25:28;;;;;;;0.63;0.22;;;14.60;99.90;;;;;;5083013;28;20052;-69
2022/09/02 09:27:59;;;;;;;0.28;0.10;;;14.60;99.90;;;;;;5081671;28;20074;-72
2022/09/02 09:30:28;;;;;;;0.20;0.15;;;14.50;99.90;;;;;;5084072;28;20048;-67
2022/09/02 09:32:58;;;;;;;0.10;0.10;;;14.60;99.90;;;;;;5083430;28;20044;-70
2022/09/02 09:35:27;;;;;;;1.38;0.25;;;14.50;99.90;;;;;;5068460;28;20036;-67
2022/09/02 09:37:55;;;;;;;0.63;0.32;;;14.60;99.90;;;;;;5084420;28;20151;-71
2022/09/02 09:40:26;;;;;;;0.20;0.15;;;14.70;99.90;;;;;;5086022;28;20068;-68
2022/09/02 09:43:04;;;;;;;0.28;0.20;;;14.60;99.90;;;;;;5072422;28;20056;-68
2022/09/02 09:45:46;;;;;;;0.50;0.15;;;14.60;99.90;;;;;;5085519;28;20040;-69
2022/09/02 09:48:17;;;;;;;1.75;0.20;;;14.70;99.90;;;;;;5085621;28;20047;-67
2022/09/02 09:50:56;;;;;;;0.57;0.20;;;14.60;99.90;;;;;;5082554;27;20047;-67
2022/09/02 09:53:26;;;;;;;0.65;0.28;;;14.60;99.90;;;;;;5080026;28;20078;-68
2022/09/02 09:56:04;;;;;;;0.20;0.20;;;14.60;99.90;;;;;;5081132;28;20048;-73
2022/09/02 09:58:44;;;;;;;0.75;0.20;;;14.50;99.90;;;;;;5064937;28;20105;-68
2022/09/02 10:01:13;;;;;;;2.90;0.30;;;14.60;99.90;;;;;;5077875;28;20430;-70
2022/09/02 10:03:51;;;;;;;0.32;0.10;;;14.70;99.90;;;;;;5086005;28;20071;-68
2022/09/02 10:06:34;;;;;;;1.25;0.22;;;14.80;99.90;;;;;;5086118;28;20636;-66
2022/09/02 10:09:04;;;;;;;0.85;0.60;;;14.90;99.90;;;;;;5081309;28;20819;-70
2022/09/02 10:11:36;;;;;;;0.30;0.20;;;14.90;99.90;;;;;;5084447;28;20181;-69
2022/09/02 10:14:07;;;;;;;0.43;0.13;;;14.90;99.90;;;;;;5080864;28;20582;-69
2022/09/02 10:16:37;;;;;;;0.52;0.20;;;15.00;99.90;;;;;;5081669;28;20040;-69
2022/09/02 10:19:22;;;;;;;1.88;0.30;;;15.20;99.90;;;;;;5081381;28;20130;-69
2022/09/02 10:22:28;;;;;;;0.52;0.40;;;15.20;99.90;;;;;;5083389;28;20082;-71
2022/09/02 10:25:37;;;;;;;0.85;0.30;;;15.20;99.90;;;;;;5081298;28;20477;-68
2022/09/02 10:28:25;;;;;;;0.30;0.30;;;15.10;99.90;;;;;;5082674;28;20434;-69
2022/09/02 10:31:04;;;;;;;0.57;0.30;;;15.10;99.90;;;;;;5079936;28;20048;-72
2022/09/02 10:33:51;;;;;;;1.13;1.02;;;15.10;99.90;;;;;;5083136;28;20058;-69
2022/09/02 10:36:40;;;;;;;1.20;0.20;;;15.20;99.90;;;;;;5083317;28;20493;-71
2022/09/02 10:39:27;;;;;;;0.50;0.30;;;15.30;99.90;;;;;;5081144;28;20131;-69
2022/09/02 10:42:03;;;;;;;2.47;0.50;;;15.10;99.90;;;;;;5080145;28;20052;-69
2022/09/02 10:44:37;;;;;;;1.00;0.20;;;15.00;99.90;;;;;;5084405;28;20342;-69
2022/09/02 10:47:23;;;;;;;0.40;0.20;;;14.90;99.90;;;;;;5081543;28;20047;-69
2022/09/02 10:50:21;;;;;;;0.57;0.22;;;14.80;99.90;;;;;;5081512;28;20052;-68
2022/09/02 10:53:03;;;;;;;1.27;0.28;;;14.80;99.90;;;;;;5077017;28;20036;-69
2022/09/02 10:55:41;;;;;;;0.52;0.52;;;14.80;99.90;;;;;;5079038;28;20044;-69
2022/09/02 10:58:35;;;;;;;0.95;0.30;;;15.00;99.90;;;;;;5081603;28;20051;-69
2022/09/02 11:01:06;;;;;;;1.23;0.10;;;15.20;99.90;;;;;;5070015;28;20118;-70
2022/09/02 11:03:37;;;;;;;;;;;15.20;99.90;;;;;;5083845;28;20043;-70
2022/09/02 11:06:22;;;;;;;0.77;0.30;;;15.00;99.90;;;;;;5084465;28;19923;-67
2022/09/02 11:09:28;;;;;;;0.43;0.22;;;14.90;99.90;;;;;;5073697;28;20065;-68
2022/09/02 11:12:21;;;;;;;1.92;0.30;;;15.00;99.90;;;;;;5065423;28;20058;-68
2022/09/02 11:15:18;;;;;;;2.63;0.52;;;14.90;99.90;;;;;;5067193;28;20036;-70
2022/09/02 11:17:54;;;;;;;0.43;0.20;;;14.90;99.90;;;;;;5080064;28;20040;-69
2022/09/02 11:20:51;;;;;;;0.82;0.45;;;14.90;99.90;;;;;;5080220;28;20848;-69
2022/09/02 11:23:31;;;;;;;1.48;0.25;;;14.90;99.90;;;;;;5080430;28;20048;-69
2022/09/02 11:26:10;;;;;;;0.90;0.90;;;15.00;99.90;;;;;;5081334;28;20047;-70
2022/09/02 11:29:00;;;;;;;1.13;0.30;;;15.00;99.90;;;;;;5078648;28;20648;-69
2022/09/02 11:31:32;;;;;;;1.10;0.20;;;15.00;99.90;;;;;;5082803;28;20104;-68
2022/09/02 11:34:34;;;;;;;0.38;0.10;;;14.90;99.90;;;;;;5082337;28;20041;-69
2022/09/02 11:37:04;;;;;;;1.40;0.40;;;15.10;99.90;;;;;;5079825;28;20042;-69
2022/09/02 11:39:46;;;;;;;1.30;0.30;;;15.10;99.90;;;;;;5081067;28;20044;-71
2022/09/02 11:42:54;;;;;;;0.80;0.30;;;15.30;99.90;;;;;;5082505;28;20426;-68
2022/09/02 11:46:06;;;;;;;0.55;0.20;;;15.50;99.90;;;;;;5070020;28;20040;-68
2022/09/02 11:48:52;;;;;;;0.45;0.22;;;15.70;99.90;;;;;;5078084;28;20036;-68
2022/09/02 11:51:31;;;;;;;1.63;0.20;;;15.80;99.90;;;;;;5084094;28;20093;-68
2022/09/02 11:54:00;;;;;;;3.35;0.10;;;15.70;99.90;;;;;;5083218;28;20044;-70
2022/09/02 11:56:36;;;;;;;0.45;0.20;;;15.70;99.90;;;;;;5081972;28;20039;-70
2022/09/02 11:59:05;;;;;;;1.52;0.30;;;15.50;99.90;;;;;;5072709;28;20039;-68
2022/09/02 12:01:46;;;;;;;0.85;0.30;;;15.30;99.90;;;;;;5082142;28;20466;-69
2022/09/02 12:04:13;;;;;;;0.20;0.20;;;15.20;99.90;;;;;;5078704;28;20381;-68
2022/09/02 12:07:06;;;;;;;1.00;0.55;;;15.10;99.90;;;;;;5081203;28;20533;-68
2022/09/02 12:09:41;;;;;;;3.22;0.50;;;15.00;99.90;;;;;;5082119;28;20464;-68
2022/09/02 12:12:35;;;;;;;0.82;0.30;;;15.00;99.90;;;;;;5080539;28;20074;-68
2022/09/02 12:15:16;;;;;;;0.73;0.30;;;15.10;99.90;;;;;;5079359;28;20379;-68
2022/09/02 12:17:48;;;;;;;2.72;0.55;;;15.20;99.90;;;;;;5062086;28;20343;-68
2022/09/02 12:20:43;;;;;;;6.85;0.55;;;15.40;99.90;;;;;;5085946;28;20052;-70
2022/09/02 12:24:05;;;;;;;0.35;0.22;;;15.40;99.90;;;;;;5084039;28;20040;-66
2022/09/02 12:26:35;;;;;;;1.25;0.70;;;15.50;99.90;;;;;;5058973;28;20040;-68
2022/09/02 12:29:28;;;;;;;2.55;0.47;;;15.40;99.90;;;;;;5085925;28;20040;-65
2022/09/02 12:31:56;;;;;;;0.57;0.10;;;15.50;99.90;;;;;;5086250;28;20043;-69
2022/09/02 12:34:22;;;;;;;0.82;0.10;;;15.50;99.90;;;;;;5067791;28;20142;-65
2022/09/02 12:37:02;;;;;;;0.68;0.20;;;15.60;99.90;;;;;;5084770;28;20067;-66
2022/09/02 12:39:34;;;;;;;0.35;0.20;;;15.70;99.90;;;;;;5067073;28;20404;-68
2022/09/02 12:42:05;;;;;;;1.38;0.40;;;15.50;99.90;;;;;;5082822;28;20381;-67
2022/09/02 12:44:50;;;;;;;1.45;0.32;;;15.50;99.90;;;;;;5079711;28;20063;-70
2022/09/02 12:47:24;;;;;;;0.95;0.32;;;15.20;99.90;;;;;;5088286;28;20512;-67
2022/09/02 12:50:02;;;;;;;0.35;0.20;;;15.30;99.90;;;;;;5086874;28;20048;-65
2022/09/02 12:52:34;;;;;;;2.05;0.20;;;15.40;99.90;;;;;;5087478;28;20036;-66
2022/09/02 12:55:14;;;;;;;0.45;0.17;;;15.50;99.90;;;;;;5086890;28;20052;-66
2022/09/02 12:57:43;;;;;;;0.43;0.35;;;15.50;99.90;;;;;;5089114;28;20084;-68
2022/09/02 13:00:23;;;;;;;0.70;0.30;;;15.50;99.90;;;;;;5083309;28;20072;-67
2022/09/02 13:03:22;;;;;;;0.32;0.22;;;15.50;99.90;;;;;;5085381;28;20048;-68
2022/09/02 13:06:07;;;;;;;0.52;0.40;;;15.60;99.90;;;;;;5064844;28;20064;-67
2022/09/02 13:08:43;;;;;;;0.70;0.30;;;15.70;99.90;;;;;;5084494;28;20048;-68
2022/09/02 13:11:19;;;;;;;0.32;0.25;;;15.50;99.90;;;;;;5083475;28;20052;-65
2022/09/02 13:14:03;;;;;;;2.65;0.30;;;15.50;99.90;;;;;;5084007;28;20109;-65
2022/09/02 13:16:59;;;;;;;0.75;0.25;;;15.60;99.90;;;;;;5087251;28;20142;-65
2022/09/02 13:19:51;;;;;;;0.63;0.10;;;15.50;99.90;;;;;;5066862;28;20745;-70
2022/09/02 13:22:54;;;;;;;0.70;0.32;;;15.60;99.90;;;;;;5050613;28;20102;-65